createdAt,value
2019-01-16T00:02:55.354Z,19.4
2019-01-16T00:08:19.037Z,18
2019-01-16T00:13:43.804Z,17.299999
2019-01-16T00:19:06.525Z,16.200001
2019-01-16T00:24:30.339Z,15.7
2019-01-16T00:29:53.153Z,15.3
2019-01-16T00:35:17.775Z,16
2019-01-16T00:40:40.570Z,15
2019-01-16T00:46:05.368Z,15.4
2019-01-16T00:51:29.189Z,15.2
2019-01-16T00:56:53.637Z,13.8
2019-01-16T01:02:17.390Z,14.2
2019-01-16T01:07:51.923Z,15.1
2019-01-16T01:13:28.432Z,14.8
2019-01-16T01:18:54.713Z,15.1
2019-01-16T01:24:19.092Z,15.3
2019-01-16T01:29:43.705Z,15.4
2019-01-16T01:35:09.497Z,16.6
2019-01-16T01:40:41.350Z,16.9
2019-01-16T01:46:04.187Z,17.4
2019-01-16T01:51:26.879Z,16.6
2019-01-16T01:56:50.228Z,17.1
2019-01-16T02:02:24.104Z,17.4
2019-01-16T02:07:49.251Z,17.299999
2019-01-16T02:13:11.980Z,17.9
2019-01-16T02:18:36.405Z,18.1
2019-01-16T02:24:00.758Z,17.799999
2019-01-16T02:29:24.920Z,18.799999
2019-01-16T02:34:48.171Z,19.1
2019-01-16T02:40:15.298Z,17.6
2019-01-16T02:45:38.893Z,16.799999
2019-01-16T02:51:12.377Z,17.799999
2019-01-16T02:56:36.271Z,17.9
2019-01-16T03:02:00.469Z,17.200001
2019-01-16T03:07:23.336Z,17.700001
2019-01-16T03:12:46.191Z,18.1
2019-01-16T03:18:09.069Z,18
2019-01-16T03:23:32.851Z,18.299999
2019-01-16T03:28:55.627Z,17.200001
2019-01-16T03:34:20.797Z,17.6
2019-01-16T03:39:44.205Z,16.799999
2019-01-16T03:45:07.813Z,17
2019-01-16T03:50:31.328Z,16.700001
2019-01-16T03:55:54.808Z,16.700001
2019-01-16T04:01:18.804Z,16.6
2019-01-16T04:06:43.284Z,15.5
2019-01-16T04:12:07.202Z,16.700001
2019-01-16T04:17:32.303Z,16.299999
2019-01-16T04:22:55.812Z,16.299999
2019-01-16T04:28:20.075Z,15.8
2019-01-16T04:33:44.423Z,16.9
2019-01-16T04:39:07.158Z,15.9
2019-01-16T04:44:30.760Z,16.4
2019-01-16T04:49:53.450Z,16.4
2019-01-16T04:55:16.487Z,17.299999
2019-01-16T05:00:46.917Z,17.299999
2019-01-16T05:06:09.750Z,16.799999
2019-01-16T05:11:35.258Z,15.8
2019-01-16T05:16:59.232Z,16.9
2019-01-16T05:22:22.792Z,15.8
2019-01-16T05:27:46.926Z,16.4
2019-01-16T05:33:21.775Z,15.7
2019-01-16T05:38:45.312Z,15.7
2019-01-16T05:44:08.013Z,15.2
2019-01-16T05:49:30.904Z,14.4
2019-01-16T05:54:53.642Z,14.7
2019-01-16T06:00:21.847Z,13.8
2019-01-16T06:05:44.652Z,13.3
2019-01-16T06:11:07.489Z,13.2
2019-01-16T06:16:41.248Z,13.4
2019-01-16T06:22:04.033Z,13.7
2019-01-16T06:27:26.749Z,14.2
2019-01-16T06:32:49.846Z,14.1
2019-01-16T06:38:12.727Z,14.2
2019-01-16T06:43:47.134Z,14.6
2019-01-16T06:49:18.566Z,12.3
2019-01-16T06:54:41.399Z,14.9
2019-01-16T07:00:04.259Z,14.9
2019-01-16T07:05:36.931Z,14.2
2019-01-16T07:10:59.681Z,15.2
2019-01-16T07:16:23.607Z,16.299999
2019-01-16T07:21:46.475Z,15.6
2019-01-16T07:27:19.120Z,15.9
2019-01-16T07:32:51.012Z,16.299999
2019-01-16T07:38:17.101Z,16.700001
2019-01-16T07:43:40.078Z,16.1
2019-01-16T07:49:14.106Z,16
2019-01-16T07:54:45.672Z,15.3
2019-01-16T08:00:19.693Z,14.4
2019-01-16T08:05:43.248Z,13.4
2019-01-16T08:11:06.007Z,13.7
2019-01-16T08:16:28.873Z,12.1
2019-01-16T08:21:51.773Z,13.3
2019-01-16T08:27:14.547Z,12
2019-01-16T08:32:38.352Z,11.1
2019-01-16T08:38:10.058Z,10.8
2019-01-16T08:43:33.002Z,10.8
2019-01-16T08:49:05.416Z,9.6
2019-01-16T08:54:28.115Z,9.3
2019-01-16T08:59:50.991Z,8.9
2019-01-16T09:05:15.787Z,8.5
2019-01-16T09:10:39.535Z,7.1
2019-01-16T09:16:02.262Z,6.7
2019-01-16T09:21:25.761Z,5.9
2019-01-16T09:26:49.007Z,6.4
2019-01-16T09:32:11.844Z,6.4
2019-01-16T09:37:34.513Z,6.5
2019-01-16T09:42:59.331Z,6
2019-01-16T09:48:22.444Z,5.6
2019-01-16T09:53:45.294Z,6.2
2019-01-16T09:59:22.778Z,6.4
2019-01-16T10:04:56.901Z,6.3
2019-01-16T10:10:29.485Z,6.7
2019-01-16T10:15:54.882Z,6.2
2019-01-16T10:21:21.131Z,6.8
2019-01-16T10:26:44.591Z,6.5
2019-01-16T10:32:08.244Z,6.4
2019-01-16T10:37:41.294Z,6.3
2019-01-16T10:43:13.331Z,5.8
2019-01-16T10:48:36.699Z,5.6
2019-01-16T10:53:59.673Z,5.1
2019-01-16T10:59:22.495Z,5.3
2019-01-16T11:04:45.467Z,5.7
2019-01-16T11:10:09.735Z,5.8
2019-01-16T11:15:42.077Z,5.9
2019-01-16T11:21:17.623Z,5.8
2019-01-16T11:26:43.598Z,6.4
2019-01-16T11:32:07.949Z,6.5
2019-01-16T11:37:39.737Z,6.5
2019-01-16T11:43:02.409Z,6.2
2019-01-16T11:48:27.102Z,6.5
2019-01-16T11:54:00.059Z,6.9
2019-01-16T11:59:34.799Z,6.4
2019-01-16T12:04:59.546Z,7.1
2019-01-16T12:10:34.204Z,9
2019-01-16T12:15:57.106Z,9.3
2019-01-16T12:21:26.242Z,10.7
2019-01-16T12:26:46.522Z,10
2019-01-16T12:32:10.083Z,11.1
2019-01-16T12:37:33.089Z,12.2
2019-01-16T12:42:55.775Z,11.9
2019-01-16T12:48:19.352Z,12.7
2019-01-16T12:53:42.340Z,13.3
2019-01-16T12:59:05.115Z,11.9
2019-01-16T13:04:28.473Z,12.6
2019-01-16T13:09:51.125Z,10.7
2019-01-16T13:15:14.097Z,11.7
2019-01-16T13:20:37.147Z,10.2
2019-01-16T13:26:02.354Z,10.4
2019-01-16T13:31:25.842Z,11
2019-01-16T13:36:48.765Z,10.2
2019-01-16T13:42:11.499Z,10.4
2019-01-16T13:47:36.250Z,10.5
2019-01-16T13:52:59.965Z,9
2019-01-16T13:58:23.806Z,10.1
2019-01-16T14:03:46.687Z,9.6
2019-01-16T14:09:10.612Z,9.7
2019-01-16T14:14:35.263Z,9.2
2019-01-16T14:19:58.381Z,9.2
2019-01-16T14:25:21.019Z,9
2019-01-16T14:30:43.814Z,8.4
2019-01-16T14:36:09.590Z,9
2019-01-16T14:41:34.095Z,9
2019-01-16T14:46:56.834Z,8.7
2019-01-16T14:52:19.550Z,8.5
2019-01-16T14:57:43.709Z,9.3
2019-01-16T15:03:07.021Z,8.3
2019-01-16T15:08:31.686Z,8.3
2019-01-16T15:13:55.101Z,8.4
2019-01-16T15:19:18.506Z,9
2019-01-16T15:24:41.138Z,9
2019-01-16T15:30:06.915Z,9
2019-01-16T15:35:31.131Z,8.7
2019-01-16T15:40:55.598Z,9
2019-01-16T15:46:20.079Z,8.4
2019-01-16T15:51:55.629Z,9.2
2019-01-16T15:57:20.617Z,10.1
2019-01-16T16:02:46.805Z,10
2019-01-16T16:08:08.109Z,10.5
2019-01-16T16:13:32.160Z,11.3
2019-01-16T16:18:55.106Z,10.5
2019-01-16T16:24:20.529Z,10.6
2019-01-16T16:29:55.972Z,11.2
2019-01-16T16:35:20.063Z,11.2
2019-01-16T16:40:45.210Z,11.2
2019-01-16T16:46:09.689Z,11
2019-01-16T16:51:32.538Z,10.7
2019-01-16T16:56:55.677Z,10.4
2019-01-16T17:02:18.763Z,10.1
2019-01-16T17:07:43.751Z,12.2
2019-01-16T17:13:08.167Z,10.5
2019-01-16T17:18:32.327Z,10.2
2019-01-16T17:23:55.477Z,9.9
2019-01-16T17:29:18.711Z,9.9
2019-01-16T17:34:41.285Z,9.6
2019-01-16T17:40:04.105Z,9.4
2019-01-16T17:45:27.169Z,9
2019-01-16T17:50:49.821Z,10.1
2019-01-16T17:56:12.569Z,10.7
2019-01-16T18:01:37.263Z,9.9
2019-01-16T18:07:02.807Z,9.2
2019-01-16T18:12:26.141Z,9.3
2019-01-16T18:17:49.929Z,9.9
2019-01-16T18:23:13.693Z,8.5
2019-01-16T18:28:38.119Z,8.8
2019-01-16T18:34:00.777Z,8.4
2019-01-16T18:39:23.706Z,8.2
2019-01-16T18:44:47.790Z,7.5
2019-01-16T18:50:11.337Z,6.7
2019-01-16T18:55:34.639Z,6.7
2019-01-16T19:00:57.506Z,7.1
2019-01-16T19:06:20.346Z,6.8
2019-01-16T19:11:43.209Z,6.5
2019-01-16T19:17:06.902Z,6.9
2019-01-16T19:22:29.657Z,6.8
2019-01-16T19:27:52.260Z,7.1
2019-01-16T19:33:15.099Z,6.8
2019-01-16T19:38:39.173Z,6.8
2019-01-16T19:44:02.324Z,6.9
2019-01-16T19:49:25.772Z,7.3
2019-01-16T19:54:48.549Z,8.2
2019-01-16T20:00:11.384Z,7.4
2019-01-16T20:05:40.878Z,6.9
2019-01-16T20:10:58.773Z,7.6
2019-01-16T20:16:24.134Z,8
2019-01-16T20:21:48.797Z,8.7
2019-01-16T20:27:11.609Z,8.9
2019-01-16T20:32:38.227Z,9.5
2019-01-16T20:38:03.259Z,9.3
2019-01-16T20:43:26.909Z,10.3
2019-01-16T20:48:50.433Z,9.4
2019-01-16T20:54:12.768Z,9.6
2019-01-16T20:59:35.609Z,9.2
2019-01-16T21:04:58.216Z,9.7
2019-01-16T21:10:21.307Z,10.2
2019-01-16T21:15:44.613Z,9.1
2019-01-16T21:21:07.472Z,9.8
2019-01-16T21:26:30.307Z,10.1
2019-01-16T21:31:53.815Z,9.5
2019-01-16T21:37:16.921Z,10
2019-01-16T21:42:40.396Z,10.1
2019-01-16T21:48:04.642Z,10.3
2019-01-16T21:53:30.381Z,10.3
2019-01-16T21:58:52.538Z,10.4
2019-01-16T22:04:16.143Z,10.8
2019-01-16T22:09:41.273Z,9.8
2019-01-16T22:15:04.509Z,10.3
2019-01-16T22:20:28.514Z,11
2019-01-16T22:25:52.134Z,10.5
2019-01-16T22:31:16.288Z,10.2
2019-01-16T22:36:39.875Z,11
2019-01-16T22:42:05.509Z,11.3
2019-01-16T22:47:29.868Z,10.9
2019-01-16T22:52:51.949Z,11.6
2019-01-16T22:58:14.667Z,11.2
2019-01-16T23:03:39.728Z,12.5
2019-01-16T23:09:02.378Z,13.2
2019-01-16T23:14:26.775Z,13.2
2019-01-16T23:19:49.898Z,13.8
2019-01-16T23:25:15.276Z,14.1
2019-01-16T23:30:38.243Z,15
2019-01-16T23:36:01.897Z,13.7
2019-01-16T23:41:28.094Z,17
2019-01-16T23:46:51.404Z,15.5
2019-01-16T23:52:24.683Z,18.200001
2019-01-16T23:57:48.156Z,18.1
